首页
METAR-TAF:

METAR-TAF

机场 :

Lumberton Municipal Airport

兰伯顿, 北卡罗来纳州, 美国

纬度: 34-36-26N, 经度: 079-03-36W, 海拔: 38米

METAR: 丢失

时间: 13:56 (18:56 UTC)

预报

该预报发布于1小时和36分钟前的17:20 UTC
预报有效从18日的 18点(UTC)到 19日的 18点(UTC)
风速4节,风向西南
能見度: 10公里
阴天层高于2000英尺
附近有阵雨
从 19日的 0000点(UTC)
风速5节,风向南转西南
能見度: 10公里
阴天层高于1000英尺
附近有阵雨
从 19日的 0200点(UTC)
风速6节,风向南转西南
能見度: 8.0公里
阴天层高于300英尺
阵雨, 轻雾
从 19日的 1600点(UTC)
风速12节,风向北转东北,有时为19节阵风
能見度: 8.0公里
阴天层高于900英尺
阵雨, 轻雾
从 19日的 1700点(UTC)
风速12节,风向北转东北
能見度: 8.0公里
阴天层高于2500英尺
小阵雨, 轻雾

TAF: KLBT 181720Z 1818/1918 23004KT P6SM VCSH OVC020 FM190000 20005KT P6SM VCSH OVC010 FM190200 21006KT 5SM SHRA BR OVC003 FM191600 03012G19KT 5SM SHRA BR OVC009 FM191700 03012KT 5SM -SHRA BR OVC025 AMD NOT SKED

超过4000个机场的气象观测和天气预报(METAR&TAF报告)。

可查询的气象台以黄色和红色小点在地图上表示。

将鼠标移到小点上方,可查看气象台名称。

然后点击查看天气观测和预报。

如需切换地图:点击带黑十字的绿色按钮放大地图;点击带横线的绿色按钮缩小地图;或者点击绿色箭头查看邻近地区的地图。


METAR-TAF: